Time,TemperatureF,DewpointF,PressureIn,WindDirection,WindDirectionDegrees,WindSpeedMPH,WindSpeedGustMPH,Humidity,HourlyPrecipIn,Conditions,Clouds,dailyrainin,SolarRadiationWatts/m^2,SoftwareType,DateUTC
2013-08-24 00:02:00,52.0,50.0,-100.00,SSE,158,1.0,3.0,92,0.00,,,0.00,0.000000,,2013-08-24 07:02:00,
2013-08-24 00:12:00,52.0,50.0,-100.00,SSE,158,1.0,3.0,92,0.00,,,0.00,0.000000,,2013-08-24 07:12:00,
2013-08-24 00:21:00,52.0,50.0,-100.00,SSE,158,1.0,3.0,92,0.00,,,0.00,0.000000,,2013-08-24 07:21:00,
2013-08-24 00:53:00,52.0,50.0,-100.00,North,351,1.0,3.0,93,0.00,,,0.00,0.000000,,2013-08-24 07:53:00,
2013-08-24 01:02:00,52.0,50.0,-100.00,North,351,1.0,3.0,93,0.00,,,0.00,0.000000,,2013-08-24 08:02:00,
2013-08-24 01:12:00,52.0,50.0,-100.00,North,351,1.0,3.0,93,0.00,,,0.00,0.000000,,2013-08-24 08:12:00,
2013-08-24 01:22:00,52.0,50.0,-100.00,North,351,1.0,3.0,93,0.00,,,0.00,0.000000,,2013-08-24 08:22:00,
2013-08-24 01:52:00,52.0,51.0,-100.00,West,267,1.0,3.0,95,0.00,,,0.00,0.000000,,2013-08-24 08:52:00,
2013-08-24 02:01:00,52.0,51.0,-100.00,West,267,1.0,3.0,95,0.00,,,0.00,0.000000,,2013-08-24 09:01:00,
2013-08-24 02:11:00,52.0,51.0,-100.00,West,267,1.0,3.0,95,0.00,,,0.00,0.000000,,2013-08-24 09:11:00,
2013-08-24 02:22:00,52.0,51.0,-100.00,West,267,1.0,3.0,95,0.00,,,0.00,0.000000,,2013-08-24 09:22:00,
2013-08-24 02:53:00,52.0,50.0,-100.00,South,183,0.0,3.0,93,0.00,,,0.00,0.000000,,2013-08-24 09:53:00,
2013-08-24 03:03:00,52.0,50.0,-100.00,South,183,0.0,3.0,93,0.00,,,0.00,0.000000,,2013-08-24 10:03:00,
2013-08-24 03:13:00,52.0,50.0,-100.00,South,183,0.0,3.0,93,0.00,,,0.00,0.000000,,2013-08-24 10:13:00,
2013-08-24 03:23:00,52.0,50.0,-100.00,South,183,0.0,3.0,93,0.00,,,0.00,0.000000,,2013-08-24 10:23:00,
2013-08-24 03:53:00,53.0,50.0,-100.00,SSE,168,0.0,4.0,88,0.00,,,0.00,0.000000,,2013-08-24 10:53:00,
2013-08-24 04:02:00,53.0,50.0,-100.00,SSE,168,0.0,4.0,88,0.00,,,0.00,0.000000,,2013-08-24 11:02:00,
2013-08-24 04:12:00,53.0,50.0,-100.00,SSE,168,0.0,4.0,88,0.00,,,0.00,0.000000,,2013-08-24 11:12:00,
2013-08-24 04:22:00,53.0,50.0,-100.00,SSE,168,0.0,4.0,88,0.00,,,0.00,0.000000,,2013-08-24 11:22:00,
2013-08-24 04:52:00,51.0,49.0,-100.00,WNW,285,1.0,3.0,94,0.00,,,0.00,0.000000,,2013-08-24 11:52:00,
2013-08-24 05:02:00,51.0,49.0,-100.00,WNW,285,1.0,3.0,94,0.00,,,0.00,0.000000,,2013-08-24 12:02:00,
2013-08-24 05:11:00,51.0,49.0,-100.00,WNW,285,1.0,3.0,94,0.00,,,0.00,0.000000,,2013-08-24 12:11:00,
2013-08-24 05:21:00,51.0,49.0,-100.00,WNW,285,1.0,3.0,94,0.00,,,0.00,0.000000,,2013-08-24 12:21:00,
2013-08-24 05:52:00,51.0,49.0,-100.00,ESE,113,0.0,3.0,93,0.00,,,0.00,0.000000,,2013-08-24 12:52:00,
2013-08-24 06:02:00,51.0,49.0,-100.00,ESE,113,0.0,3.0,93,0.00,,,0.00,0.000000,,2013-08-24 13:02:00,
2013-08-24 06:11:00,51.0,49.0,-100.00,ESE,113,0.0,3.0,93,0.00,,,0.00,0.000000,,2013-08-24 13:11:00,
2013-08-24 06:22:00,51.0,49.0,-100.00,ESE,113,0.0,3.0,93,0.00,,,0.00,0.000000,,2013-08-24 13:22:00,
2013-08-24 06:52:00,52.0,49.0,-100.00,South,182,0.0,4.0,88,0.00,,,0.00,1.000000,,2013-08-24 13:52:00,
2013-08-24 07:02:00,52.0,49.0,-100.00,South,182,0.0,4.0,88,0.00,,,0.00,1.000000,,2013-08-24 14:02:00,
2013-08-24 07:11:00,52.0,49.0,-100.00,South,182,0.0,4.0,88,0.00,,,0.00,1.000000,,2013-08-24 14:11:00,
2013-08-24 07:22:00,52.0,49.0,-100.00,South,182,0.0,4.0,88,0.00,,,0.00,1.000000,,2013-08-24 14:22:00,
2013-08-24 07:52:00,52.0,50.0,-100.00,East,92,1.0,5.0,94,0.00,,,0.00,19.000000,,2013-08-24 14:52:00,
2013-08-24 08:01:00,52.0,50.0,-100.00,East,92,1.0,5.0,94,0.00,,,0.00,19.000000,,2013-08-24 15:01:00,
2013-08-24 08:11:00,52.0,50.0,-100.00,East,92,1.0,5.0,94,0.00,,,0.00,19.000000,,2013-08-24 15:11:00,
2013-08-24 08:21:00,52.0,50.0,-100.00,East,92,1.0,5.0,94,0.00,,,0.00,19.000000,,2013-08-24 15:21:00,
2013-08-24 08:54:00,54.0,51.0,-100.00,East,79,1.0,5.0,90,0.00,,,0.00,103.000000,,2013-08-24 15:54:00,
2013-08-24 09:04:00,54.0,51.0,-100.00,East,79,1.0,5.0,90,0.00,,,0.00,103.000000,,2013-08-24 16:04:00,
2013-08-24 09:13:00,54.0,51.0,-100.00,East,79,1.0,5.0,90,0.00,,,0.00,103.000000,,2013-08-24 16:13:00,
2013-08-24 09:23:00,54.0,51.0,-100.00,East,79,1.0,5.0,90,0.00,,,0.00,103.000000,,2013-08-24 16:23:00,
2013-08-24 09:53:00,56.0,51.0,-100.00,NW,323,2.0,6.0,84,0.00,,,0.00,224.000000,,2013-08-24 16:53:00,
2013-08-24 10:02:00,56.0,51.0,-100.00,NW,323,2.0,6.0,84,0.00,,,0.00,224.000000,,2013-08-24 17:02:00,
2013-08-24 10:12:00,56.0,51.0,-100.00,NW,323,2.0,6.0,84,0.00,,,0.00,224.000000,,2013-08-24 17:12:00,
2013-08-24 10:23:00,56.0,51.0,-100.00,NW,323,2.0,6.0,84,0.00,,,0.00,224.000000,,2013-08-24 17:23:00,
2013-08-24 10:52:00,55.0,50.0,-100.00,NNW,343,3.0,6.0,84,0.00,,,-99.99,237.000000,,2013-08-24 17:52:00,
2013-08-24 11:02:00,55.0,50.0,-100.00,NNW,343,3.0,6.0,84,0.00,,,-99.99,237.000000,,2013-08-24 18:02:00,
2013-08-24 11:13:00,55.0,50.0,-100.00,NNW,343,3.0,6.0,84,0.00,,,-99.99,237.000000,,2013-08-24 18:13:00,
2013-08-24 11:22:00,55.0,50.0,-100.00,NNW,343,3.0,6.0,84,0.00,,,-99.99,237.000000,,2013-08-24 18:22:00,
2013-08-24 11:53:00,58.0,49.0,-100.00,NNW,343,3.0,7.0,71,0.00,,,0.00,193.000000,,2013-08-24 18:53:00,
2013-08-24 12:01:00,58.0,49.0,-100.00,NNW,343,3.0,7.0,71,0.00,,,0.00,193.000000,,2013-08-24 19:01:00,
2013-08-24 12:12:00,58.0,49.0,-100.00,NNW,343,3.0,7.0,71,0.00,,,0.00,193.000000,,2013-08-24 19:12:00,
2013-08-24 12:21:00,58.0,49.0,-100.00,NNW,343,3.0,7.0,71,0.00,,,0.00,193.000000,,2013-08-24 19:21:00,
2013-08-24 12:52:00,61.0,52.0,-100.00,NNW,327,4.0,8.0,72,0.00,,,0.00,321.000000,,2013-08-24 19:52:00,
2013-08-24 13:02:00,61.0,52.0,-100.00,NNW,327,4.0,8.0,72,0.00,,,0.00,321.000000,,2013-08-24 20:02:00,
2013-08-24 13:11:00,61.0,52.0,-100.00,NNW,327,4.0,8.0,72,0.00,,,0.00,321.000000,,2013-08-24 20:11:00,
2013-08-24 13:22:00,61.0,52.0,-100.00,NNW,327,4.0,8.0,72,0.00,,,0.00,321.000000,,2013-08-24 20:22:00,
2013-08-24 13:52:00,61.0,50.0,-100.00,West,265,6.0,16.0,68,0.00,,,0.00,262.000000,,2013-08-24 20:52:00,
2013-08-24 14:02:00,61.0,50.0,-100.00,West,265,6.0,16.0,68,0.00,,,0.00,262.000000,,2013-08-24 21:02:00,
2013-08-24 14:11:00,61.0,50.0,-100.00,West,265,6.0,16.0,68,0.00,,,0.00,262.000000,,2013-08-24 21:11:00,
2013-08-24 14:22:00,61.0,50.0,-100.00,West,265,6.0,16.0,68,0.00,,,0.00,262.000000,,2013-08-24 21:22:00,
2013-08-24 14:55:00,60.0,50.0,-100.00,WSW,247,2.0,10.0,70,0.00,,,0.00,219.000000,,2013-08-24 21:55:00,
2013-08-24 15:04:00,60.0,50.0,-100.00,WSW,247,2.0,10.0,70,0.00,,,0.00,219.000000,,2013-08-24 22:04:00,
2013-08-24 15:14:00,60.0,50.0,-100.00,WSW,247,2.0,10.0,70,0.00,,,0.00,219.000000,,2013-08-24 22:14:00,
2013-08-24 15:23:00,60.0,50.0,-100.00,WSW,247,2.0,10.0,70,0.00,,,0.00,219.000000,,2013-08-24 22:23:00,
2013-08-24 15:53:00,59.0,51.0,-100.00,West,279,5.0,11.0,76,0.00,,,0.00,293.000000,,2013-08-24 22:53:00,
2013-08-24 16:03:00,59.0,51.0,-100.00,West,279,5.0,11.0,76,0.00,,,0.00,293.000000,,2013-08-24 23:03:00,
2013-08-24 16:12:00,59.0,51.0,-100.00,West,279,5.0,11.0,76,0.00,,,0.00,293.000000,,2013-08-24 23:12:00,
2013-08-24 16:22:00,59.0,51.0,-100.00,West,279,5.0,11.0,76,0.00,,,0.00,293.000000,,2013-08-24 23:22:00,
2013-08-24 16:53:00,62.0,49.0,-100.00,WSW,254,4.0,11.0,62,0.00,,,0.00,487.000000,,2013-08-24 23:53:00,
2013-08-24 17:02:00,62.0,49.0,-100.00,WSW,254,4.0,11.0,62,0.00,,,0.00,487.000000,,2013-08-25 00:02:00,
2013-08-24 17:11:00,62.0,49.0,-100.00,WSW,254,4.0,11.0,62,0.00,,,0.00,487.000000,,2013-08-25 00:11:00,
2013-08-24 17:21:00,62.0,49.0,-100.00,WSW,254,4.0,11.0,62,0.00,,,0.00,487.000000,,2013-08-25 00:21:00,
2013-08-24 17:52:00,65.0,49.0,-100.00,WSW,257,1.0,7.0,57,0.00,,,0.00,495.000000,,2013-08-25 00:52:00,
2013-08-24 18:01:00,65.0,49.0,-100.00,WSW,257,1.0,7.0,57,0.00,,,0.00,495.000000,,2013-08-25 01:01:00,
2013-08-24 18:11:00,65.0,49.0,-100.00,WSW,257,1.0,7.0,57,0.00,,,0.00,495.000000,,2013-08-25 01:11:00,
2013-08-24 18:22:00,65.0,49.0,-100.00,WSW,257,1.0,7.0,57,0.00,,,0.00,495.000000,,2013-08-25 01:22:00,
2013-08-24 18:52:00,57.0,50.0,-100.00,WSW,249,2.0,10.0,78,0.00,,,0.00,219.000000,,2013-08-25 01:52:00,
2013-08-24 19:02:00,57.0,50.0,-100.00,WSW,249,2.0,10.0,78,0.00,,,0.00,219.000000,,2013-08-25 02:02:00,
2013-08-24 19:11:00,57.0,50.0,-100.00,WSW,249,2.0,10.0,78,0.00,,,0.00,219.000000,,2013-08-25 02:11:00,
2013-08-24 19:22:00,57.0,50.0,-100.00,WSW,249,2.0,10.0,78,0.00,,,0.00,219.000000,,2013-08-25 02:22:00,
2013-08-24 19:52:00,55.0,51.0,-100.00,West,271,2.0,6.0,86,0.00,,,0.00,59.000000,,2013-08-25 02:52:00,
2013-08-24 20:02:00,55.0,51.0,-100.00,West,271,2.0,6.0,86,0.00,,,0.00,59.000000,,2013-08-25 03:02:00,
2013-08-24 20:11:00,55.0,51.0,-100.00,West,271,2.0,6.0,86,0.00,,,0.00,59.000000,,2013-08-25 03:11:00,
2013-08-24 20:22:00,55.0,51.0,-100.00,West,271,2.0,6.0,86,0.00,,,0.00,59.000000,,2013-08-25 03:22:00,
2013-08-24 20:54:00,54.0,51.0,-100.00,West,262,3.0,7.0,89,0.00,,,0.00,19.000000,,2013-08-25 03:54:00,
2013-08-24 21:02:00,-999.0,-99.9,-100.00,West,262,3.0,7.0,-999,-99.99,,,-99.99,19.000000,,2013-08-25 04:02:00,
2013-08-24 21:14:00,54.0,51.0,-100.00,West,262,3.0,7.0,89,0.00,,,0.00,19.000000,,2013-08-25 04:14:00,
2013-08-24 21:24:00,54.0,51.0,-100.00,West,262,3.0,7.0,89,0.00,,,0.00,19.000000,,2013-08-25 04:24:00,
2013-08-24 21:54:00,52.0,50.0,-100.00,SSE,156,0.0,5.0,92,0.00,,,0.00,0.000000,,2013-08-25 04:54:00,
2013-08-24 22:03:00,52.0,50.0,-100.00,SSE,156,0.0,5.0,92,0.00,,,0.00,0.000000,,2013-08-25 05:03:00,
2013-08-24 22:12:00,52.0,50.0,-100.00,SSE,156,0.0,5.0,92,0.00,,,0.00,0.000000,,2013-08-25 05:12:00,
2013-08-24 22:22:00,52.0,50.0,-100.00,SSE,156,0.0,5.0,92,0.00,,,0.00,0.000000,,2013-08-25 05:22:00,
2013-08-24 22:52:00,51.0,50.0,-100.00,SW,224,1.0,4.0,95,0.00,,,0.00,0.000000,,2013-08-25 05:52:00,
2013-08-24 23:03:00,51.0,50.0,-100.00,SW,224,1.0,4.0,95,0.00,,,0.00,0.000000,,2013-08-25 06:03:00,
2013-08-24 23:12:00,51.0,50.0,-100.00,SW,224,1.0,4.0,95,0.00,,,0.00,0.000000,,2013-08-25 06:12:00,
2013-08-24 23:21:00,51.0,50.0,-100.00,SW,224,1.0,4.0,95,0.00,,,0.00,0.000000,,2013-08-25 06:21:00,
2013-08-24 23:52:00,50.0,49.0,-100.00,SE,130,0.0,3.0,96,0.00,,,0.00,0.000000,,2013-08-25 06:52:00,